Izki — V7XV2 — position and weather

sailwx.info

Track history (hours):
 
Tides and Currents Weather Stations Pressure Air Temp Water Temp Dewpoint Dewpoint Depression Visibility Wind Speed Wind Dir Waves Ship Positions

Izki

Last reported at 2016-Apr-30 04:12 UTC. Time now 2016-May-06 03:38 UTC.
Position N 28°40' W 094°55'.

Length 333 m; draft 13 m.

Type: Tanker. MMSI: 538004578.

Date/timePositionNaut miles runAvg speedWind from/ knotsBaromVisibWave heightAir tempDewpointWater temp
2016-Apr-30 04:12N 28°40' W 094°55'0 0.2
2016-Apr-30 03:33N 28°40' W 094°55'8 1.4
2016-Apr-29 22:04N 28°42' W 094°47'8 1.3
2016-Apr-29 15:32N 28°42' W 094°37'3 0.8
2016-Apr-29 12:20N 28°40' W 094°35'1 0.5
2016-Apr-29 11:13N 28°40' W 094°35'0 0.6
2016-Apr-29 10:32N 28°39' W 094°35'0 0.3
2016-Apr-29 09:33N 28°39' W 094°35'7 3.5
2016-Apr-29 07:33N 28°37' W 094°27'4 4.0
2016-Apr-29 06:33N 28°36' W 094°22'5 1.2
2016-Apr-29 02:25N 28°36' W 094°28'15 0.5
2016-Apr-27 17:31N 28°37' W 094°45'2 0.2
2016-Apr-27 06:27N 28°38' W 094°43'0 0.1
2016-Apr-27 05:34N 28°38' W 094°43'0 0.1
2016-Apr-27 04:32N 28°38' W 094°43'0 0.1
2016-Apr-27 03:33N 28°38' W 094°43'0 0.0
2016-Apr-27 02:29N 28°38' W 094°43'0 0.0
2016-Apr-26 23:33N 28°38' W 094°43'0 0.0
2016-Apr-26 20:17N 28°38' W 094°43'0 0.1
2016-Apr-26 18:29N 28°38' W 094°43'0 0.1
2016-Apr-26 16:34N 28°38' W 094°43'7 1.1
2016-Apr-26 10:27N 28°37' W 094°35'  
Track history (hours):
 
Tides and Currents Weather Stations Pressure Air Temp Water Temp Dewpoint Dewpoint Depression Visibility Wind Speed Wind Dir Waves Ship Positions

Izki

Last reported at 2016-Apr-30 04:12 UTC. Time now 2016-May-06 03:38 UTC.
Position N 28°40' W 094°55'.

Length 333 m; draft 13 m.

Type: Tanker. MMSI: 538004578.

Date/timePositionNaut miles runAvg speedWind from/ knotsBaromVisibWave heightAir tempDewpointWater temp
2016-Apr-30 04:12N 28°40' W 094°55'0 0.2
2016-Apr-30 03:33N 28°40' W 094°55'8 1.4
2016-Apr-29 22:04N 28°42' W 094°47'8 1.3
2016-Apr-29 15:32N 28°42' W 094°37'3 0.8
2016-Apr-29 12:20N 28°40' W 094°35'1 0.5
2016-Apr-29 11:13N 28°40' W 094°35'0 0.6
2016-Apr-29 10:32N 28°39' W 094°35'0 0.3
2016-Apr-29 09:33N 28°39' W 094°35'7 3.5
2016-Apr-29 07:33N 28°37' W 094°27'4 4.0
2016-Apr-29 06:33N 28°36' W 094°22'5 1.2
2016-Apr-29 02:25N 28°36' W 094°28'15 0.5
2016-Apr-27 17:31N 28°37' W 094°45'2 0.2
2016-Apr-27 06:27N 28°38' W 094°43'0 0.1
2016-Apr-27 05:34N 28°38' W 094°43'0 0.1
2016-Apr-27 04:32N 28°38' W 094°43'0 0.1
2016-Apr-27 03:33N 28°38' W 094°43'0 0.0
2016-Apr-27 02:29N 28°38' W 094°43'0 0.0
2016-Apr-26 23:33N 28°38' W 094°43'0 0.0
2016-Apr-26 20:17N 28°38' W 094°43'0 0.1
2016-Apr-26 18:29N 28°38' W 094°43'0 0.1
2016-Apr-26 16:34N 28°38' W 094°43'7 1.1
2016-Apr-26 10:27N 28°37' W 094°35'  

Dump ship's entire track history